sensor_id;sensor_type;location;lat;lon;timestamp;pressure;altitude;pressure_sealevel;temperature;humidity
17649;BME280;8943;51.110;-4.158;2022-10-03T00:01:20;102240.47;;;15.08;52.27
17649;BME280;8943;51.110;-4.158;2022-10-03T00:04:09;102231.88;;;15.03;51.93
17649;BME280;8943;51.110;-4.158;2022-10-03T00:06:45;102225.91;;;14.98;51.95
17649;BME280;8943;51.110;-4.158;2022-10-03T00:09:32;102219.91;;;14.94;52.25
17649;BME280;8943;51.110;-4.158;2022-10-03T00:12:12;102227.84;;;14.96;52.30
17649;BME280;8943;51.110;-4.158;2022-10-03T00:14:50;102220.13;;;14.91;52.38
17649;BME280;8943;51.110;-4.158;2022-10-03T00:17:26;102214.88;;;14.90;52.15
17649;BME280;8943;51.110;-4.158;2022-10-03T00:20:05;102223.03;;;14.88;52.44
17649;BME280;8943;51.110;-4.158;2022-10-03T00:22:43;102218.81;;;14.84;52.50
17649;BME280;8943;51.110;-4.158;2022-10-03T00:25:27;102220.84;;;14.81;52.40
17649;BME280;8943;51.110;-4.158;2022-10-03T00:28:09;102216.84;;;14.74;52.42
17649;BME280;8943;51.110;-4.158;2022-10-03T00:30:51;102214.16;;;14.74;52.49
17649;BME280;8943;51.110;-4.158;2022-10-03T00:33:30;102205.47;;;14.70;52.55
17649;BME280;8943;51.110;-4.158;2022-10-03T00:36:07;102209.75;;;14.73;52.68
17649;BME280;8943;51.110;-4.158;2022-10-03T00:39:17;102210.00;;;14.70;52.49
17649;BME280;8943;51.110;-4.158;2022-10-03T00:42:06;102199.88;;;14.60;52.68
17649;BME280;8943;51.110;-4.158;2022-10-03T00:44:56;102204.38;;;14.60;52.65
17649;BME280;8943;51.110;-4.158;2022-10-03T00:48:00;102205.22;;;14.60;52.76
17649;BME280;8943;51.110;-4.158;2022-10-03T00:50:46;102202.63;;;14.59;52.85
17649;BME280;8943;51.110;-4.158;2022-10-03T00:53:43;102206.19;;;14.59;52.84
17649;BME280;8943;51.110;-4.158;2022-10-03T00:59:16;102206.28;;;14.58;52.82
17649;BME280;8943;51.110;-4.158;2022-10-03T01:01:49;102215.28;;;14.57;52.73
17649;BME280;8943;51.110;-4.158;2022-10-03T01:04:37;102222.38;;;14.58;52.92
17649;BME280;8943;51.110;-4.158;2022-10-03T01:07:27;102218.94;;;14.56;52.92
17649;BME280;8943;51.110;-4.158;2022-10-03T01:10:07;102215.19;;;14.58;52.85
17649;BME280;8943;51.110;-4.158;2022-10-03T01:12:51;102214.13;;;14.61;52.90
17649;BME280;8943;51.110;-4.158;2022-10-03T01:15:35;102214.03;;;14.62;52.74
17649;BME280;8943;51.110;-4.158;2022-10-03T01:18:23;102221.97;;;14.64;52.77
17649;BME280;8943;51.110;-4.158;2022-10-03T01:21:01;102226.47;;;14.63;52.78
17649;BME280;8943;51.110;-4.158;2022-10-03T01:26:51;102221.66;;;14.68;53.03
17649;BME280;8943;51.110;-4.158;2022-10-03T01:29:25;102212.44;;;14.73;53.29
17649;BME280;8943;51.110;-4.158;2022-10-03T01:32:19;102202.25;;;14.78;53.05
17649;BME280;8943;51.110;-4.158;2022-10-03T01:34:55;102208.19;;;14.83;52.93
17649;BME280;8943;51.110;-4.158;2022-10-03T01:37:30;102209.69;;;14.87;53.14
17649;BME280;8943;51.110;-4.158;2022-10-03T01:40:07;102208.72;;;14.88;52.97
17649;BME280;8943;51.110;-4.158;2022-10-03T01:42:44;102214.75;;;14.91;53.17
17649;BME280;8943;51.110;-4.158;2022-10-03T01:45:28;102214.44;;;14.96;53.27
17649;BME280;8943;51.110;-4.158;2022-10-03T01:48:01;102203.38;;;15.01;53.08
17649;BME280;8943;51.110;-4.158;2022-10-03T01:50:33;102206.81;;;15.03;52.99
17649;BME280;8943;51.110;-4.158;2022-10-03T01:53:07;102200.59;;;15.02;53.14
17649;BME280;8943;51.110;-4.158;2022-10-03T01:55:47;102196.06;;;15.03;53.12
17649;BME280;8943;51.110;-4.158;2022-10-03T01:58:22;102195.03;;;15.05;53.08
17649;BME280;8943;51.110;-4.158;2022-10-03T02:01:00;102192.88;;;15.10;53.50
17649;BME280;8943;51.110;-4.158;2022-10-03T02:03:36;102181.94;;;15.13;53.13
17649;BME280;8943;51.110;-4.158;2022-10-03T02:06:16;102182.47;;;15.18;52.99
17649;BME280;8943;51.110;-4.158;2022-10-03T02:08:53;102181.28;;;15.23;53.08
17649;BME280;8943;51.110;-4.158;2022-10-03T02:11:29;102179.22;;;15.26;53.12
17649;BME280;8943;51.110;-4.158;2022-10-03T02:14:10;102167.53;;;15.27;53.08
17649;BME280;8943;51.110;-4.158;2022-10-03T02:16:53;102167.19;;;15.32;53.20
17649;BME280;8943;51.110;-4.158;2022-10-03T02:19:25;102156.03;;;15.38;53.01
17649;BME280;8943;51.110;-4.158;2022-10-03T02:21:57;102153.88;;;15.43;52.74
17649;BME280;8943;51.110;-4.158;2022-10-03T02:24:40;102158.16;;;15.45;53.05
17649;BME280;8943;51.110;-4.158;2022-10-03T02:27:36;102156.34;;;15.46;53.09
17649;BME280;8943;51.110;-4.158;2022-10-03T02:30:18;102158.09;;;15.47;52.94
17649;BME280;8943;51.110;-4.158;2022-10-03T02:42:37;102171.81;;;15.55;52.92
17649;BME280;8943;51.110;-4.158;2022-10-03T02:45:40;102157.63;;;15.53;52.93
17649;BME280;8943;51.110;-4.158;2022-10-03T02:48:34;102160.09;;;15.56;52.89
17649;BME280;8943;51.110;-4.158;2022-10-03T02:51:32;102165.03;;;15.62;53.19
17649;BME280;8943;51.110;-4.158;2022-10-03T02:54:23;102166.22;;;15.71;53.23
17649;BME280;8943;51.110;-4.158;2022-10-03T02:57:16;102167.50;;;15.78;52.98
17649;BME280;8943;51.110;-4.158;2022-10-03T03:00:10;102160.81;;;15.84;52.99
17649;BME280;8943;51.110;-4.158;2022-10-03T03:06:14;102151.78;;;15.85;53.04
17649;BME280;8943;51.110;-4.158;2022-10-03T03:09:12;102152.53;;;15.87;52.88
17649;BME280;8943;51.110;-4.158;2022-10-03T03:12:12;102147.69;;;15.92;53.24
17649;BME280;8943;51.110;-4.158;2022-10-03T03:17:51;102143.47;;;16.01;52.76
17649;BME280;8943;51.110;-4.158;2022-10-03T03:20:39;102146.78;;;16.04;52.91
17649;BME280;8943;51.110;-4.158;2022-10-03T03:23:35;102139.47;;;16.06;52.81
17649;BME280;8943;51.110;-4.158;2022-10-03T03:26:23;102150.97;;;16.08;53.05
17649;BME280;8943;51.110;-4.158;2022-10-03T03:29:04;102142.16;;;16.06;52.42
17649;BME280;8943;51.110;-4.158;2022-10-03T03:31:39;102141.41;;;16.04;52.64
17649;BME280;8943;51.110;-4.158;2022-10-03T03:34:16;102133.44;;;16.03;52.58
17649;BME280;8943;51.110;-4.158;2022-10-03T03:36:52;102131.50;;;16.05;52.70
17649;BME280;8943;51.110;-4.158;2022-10-03T03:39:35;102115.47;;;16.03;52.71
17649;BME280;8943;51.110;-4.158;2022-10-03T03:42:36;102106.78;;;16.00;52.70
17649;BME280;8943;51.110;-4.158;2022-10-03T03:45:24;102107.88;;;15.97;52.64
17649;BME280;8943;51.110;-4.158;2022-10-03T03:48:09;102094.53;;;15.95;52.71
17649;BME280;8943;51.110;-4.158;2022-10-03T03:50:49;102093.69;;;15.95;52.61
17649;BME280;8943;51.110;-4.158;2022-10-03T03:53:39;102103.69;;;15.93;52.67
17649;BME280;8943;51.110;-4.158;2022-10-03T03:56:38;102109.28;;;15.90;52.71
17649;BME280;8943;51.110;-4.158;2022-10-03T03:59:24;102115.84;;;15.86;52.75
17649;BME280;8943;51.110;-4.158;2022-10-03T04:02:06;102115.00;;;15.85;52.62
17649;BME280;8943;51.110;-4.158;2022-10-03T04:04:48;102110.72;;;15.83;52.68
17649;BME280;8943;51.110;-4.158;2022-10-03T04:07:27;102116.22;;;15.81;52.81
17649;BME280;8943;51.110;-4.158;2022-10-03T04:10:10;102119.97;;;15.79;52.70
17649;BME280;8943;51.110;-4.158;2022-10-03T04:16:02;102133.09;;;15.70;52.69
17649;BME280;8943;51.110;-4.158;2022-10-03T04:18:45;102141.09;;;15.72;52.82
17649;BME280;8943;51.110;-4.158;2022-10-03T04:21:34;102131.19;;;15.73;52.79
17649;BME280;8943;51.110;-4.158;2022-10-03T04:27:27;102137.59;;;15.83;53.16
17649;BME280;8943;51.110;-4.158;2022-10-03T04:30:06;102132.75;;;15.88;53.37
17649;BME280;8943;51.110;-4.158;2022-10-03T04:32:48;102132.16;;;15.95;53.27
17649;BME280;8943;51.110;-4.158;2022-10-03T04:35:51;102115.69;;;16.00;53.27
17649;BME280;8943;51.110;-4.158;2022-10-03T04:38:37;102113.44;;;16.07;53.40
17649;BME280;8943;51.110;-4.158;2022-10-03T04:41:19;102118.13;;;16.16;53.02
17649;BME280;8943;51.110;-4.158;2022-10-03T04:43:53;102119.38;;;16.23;53.12
17649;BME280;8943;51.110;-4.158;2022-10-03T04:46:29;102115.47;;;16.27;53.14
17649;BME280;8943;51.110;-4.158;2022-10-03T04:49:04;102109.63;;;16.33;52.94
17649;BME280;8943;51.110;-4.158;2022-10-03T04:51:47;102103.19;;;16.36;53.13
17649;BME280;8943;51.110;-4.158;2022-10-03T04:54:26;102102.69;;;16.42;53.05
17649;BME280;8943;51.110;-4.158;2022-10-03T04:57:03;102105.16;;;16.45;53.02
17649;BME280;8943;51.110;-4.158;2022-10-03T04:59:38;102111.06;;;16.50;52.96
17649;BME280;8943;51.110;-4.158;2022-10-03T05:02:18;102114.47;;;16.52;52.96
17649;BME280;8943;51.110;-4.158;2022-10-03T05:05:13;102111.66;;;16.54;52.87
17649;BME280;8943;51.110;-4.158;2022-10-03T05:07:49;102129.41;;;16.56;52.83
17649;BME280;8943;51.110;-4.158;2022-10-03T05:10:29;102124.03;;;16.56;52.87
17649;BME280;8943;51.110;-4.158;2022-10-03T05:13:07;102122.06;;;16.58;52.93
17649;BME280;8943;51.110;-4.158;2022-10-03T05:15:47;102124.53;;;16.61;52.85
17649;BME280;8943;51.110;-4.158;2022-10-03T05:18:21;102124.31;;;16.64;52.92
17649;BME280;8943;51.110;-4.158;2022-10-03T05:20:57;102124.06;;;16.67;52.75
17649;BME280;8943;51.110;-4.158;2022-10-03T05:23:46;102116.75;;;16.69;52.87
17649;BME280;8943;51.110;-4.158;2022-10-03T05:26:23;102109.94;;;16.77;52.79
17649;BME280;8943;51.110;-4.158;2022-10-03T05:29:16;102104.53;;;16.77;53.02
17649;BME280;8943;51.110;-4.158;2022-10-03T05:31:52;102102.47;;;16.80;52.89
17649;BME280;8943;51.110;-4.158;2022-10-03T05:34:33;102110.44;;;16.82;52.56
17649;BME280;8943;51.110;-4.158;2022-10-03T05:37:33;102114.72;;;16.84;52.90
17649;BME280;8943;51.110;-4.158;2022-10-03T05:40:14;102090.50;;;16.84;52.79
17649;BME280;8943;51.110;-4.158;2022-10-03T05:42:57;102084.00;;;16.87;52.68
17649;BME280;8943;51.110;-4.158;2022-10-03T05:45:29;102094.63;;;16.88;52.49
17649;BME280;8943;51.110;-4.158;2022-10-03T05:48:12;102084.13;;;16.85;52.26
17649;BME280;8943;51.110;-4.158;2022-10-03T05:57:23;102080.53;;;16.73;52.26
17649;BME280;8943;51.110;-4.158;2022-10-03T06:00:12;102086.28;;;16.69;52.25
17649;BME280;8943;51.110;-4.158;2022-10-03T06:06:10;102078.78;;;16.61;52.22
17649;BME280;8943;51.110;-4.158;2022-10-03T06:08:51;102083.19;;;16.62;52.02
17649;BME280;8943;51.110;-4.158;2022-10-03T06:11:49;102090.28;;;16.63;52.49
17649;BME280;8943;51.110;-4.158;2022-10-03T06:14:29;102103.00;;;16.61;52.45
17649;BME280;8943;51.110;-4.158;2022-10-03T06:17:14;102100.19;;;16.63;52.42
17649;BME280;8943;51.110;-4.158;2022-10-03T06:19:50;102089.19;;;16.66;52.40
17649;BME280;8943;51.110;-4.158;2022-10-03T06:22:38;102080.16;;;16.67;52.36
17649;BME280;8943;51.110;-4.158;2022-10-03T06:25:44;102083.38;;;16.72;52.25
17649;BME280;8943;51.110;-4.158;2022-10-03T06:28:48;102074.44;;;16.71;52.36
17649;BME280;8943;51.110;-4.158;2022-10-03T06:35:21;102074.06;;;16.76;52.38
17649;BME280;8943;51.110;-4.158;2022-10-03T06:38:28;102075.78;;;16.77;52.39
17649;BME280;8943;51.110;-4.158;2022-10-03T06:44:26;102072.59;;;16.83;52.60
17649;BME280;8943;51.110;-4.158;2022-10-03T06:47:17;102069.69;;;16.86;52.39
17649;BME280;8943;51.110;-4.158;2022-10-03T06:50:13;102066.63;;;16.91;52.44
17649;BME280;8943;51.110;-4.158;2022-10-03T06:53:05;102072.50;;;16.96;52.29
17649;BME280;8943;51.110;-4.158;2022-10-03T06:55:54;102063.72;;;17.05;51.98
17649;BME280;8943;51.110;-4.158;2022-10-03T06:59:08;102071.28;;;17.11;52.09
17649;BME280;8943;51.110;-4.158;2022-10-03T07:02:01;102071.91;;;17.15;52.01
17649;BME280;8943;51.110;-4.158;2022-10-03T07:04:59;102076.66;;;17.22;51.99
17649;BME280;8943;51.110;-4.158;2022-10-03T07:11:01;102072.88;;;17.36;51.88
17649;BME280;8943;51.110;-4.158;2022-10-03T07:17:09;102082.06;;;17.45;51.82
17649;BME280;8943;51.110;-4.158;2022-10-03T07:19:56;102083.53;;;17.49;51.75
17649;BME280;8943;51.110;-4.158;2022-10-03T07:26:09;102066.59;;;17.58;51.72
17649;BME280;8943;51.110;-4.158;2022-10-03T07:29:01;102070.78;;;17.62;51.72
17649;BME280;8943;51.110;-4.158;2022-10-03T07:31:42;102085.97;;;17.63;51.82
17649;BME280;8943;51.110;-4.158;2022-10-03T07:34:48;102076.66;;;17.67;51.79
17649;BME280;8943;51.110;-4.158;2022-10-03T07:37:29;102085.97;;;17.74;51.70
17649;BME280;8943;51.110;-4.158;2022-10-03T07:40:47;102083.88;;;17.78;52.00
17649;BME280;8943;51.110;-4.158;2022-10-03T07:43:52;102086.06;;;17.84;51.66
17649;BME280;8943;51.110;-4.158;2022-10-03T07:46:51;102085.91;;;17.86;51.61
17649;BME280;8943;51.110;-4.158;2022-10-03T07:52:42;102091.16;;;17.98;51.56
17649;BME280;8943;51.110;-4.158;2022-10-03T07:55:37;102094.94;;;18.07;51.80
17649;BME280;8943;51.110;-4.158;2022-10-03T07:58:49;102096.88;;;18.16;51.61
17649;BME280;8943;51.110;-4.158;2022-10-03T08:01:42;102100.03;;;18.21;51.74
17649;BME280;8943;51.110;-4.158;2022-10-03T08:07:25;102103.16;;;18.38;51.34
17649;BME280;8943;51.110;-4.158;2022-10-03T08:10:06;102115.88;;;18.47;51.14
17649;BME280;8943;51.110;-4.158;2022-10-03T08:12:57;102106.63;;;18.49;51.33
17649;BME280;8943;51.110;-4.158;2022-10-03T08:15:40;102107.25;;;18.53;51.01
17649;BME280;8943;51.110;-4.158;2022-10-03T08:21:18;102117.25;;;18.62;51.22
17649;BME280;8943;51.110;-4.158;2022-10-03T08:24:08;102112.22;;;18.69;51.37
17649;BME280;8943;51.110;-4.158;2022-10-03T08:27:03;102120.53;;;18.77;50.97
17649;BME280;8943;51.110;-4.158;2022-10-03T08:36:28;102116.88;;;19.09;51.18
17649;BME280;8943;51.110;-4.158;2022-10-03T08:39:11;102127.75;;;19.18;51.10
17649;BME280;8943;51.110;-4.158;2022-10-03T08:45:29;102126.28;;;19.45;50.95
17649;BME280;8943;51.110;-4.158;2022-10-03T08:54:24;102129.00;;;19.85;50.85
17649;BME280;8943;51.110;-4.158;2022-10-03T08:57:13;102118.19;;;19.95;51.00
17649;BME280;8943;51.110;-4.158;2022-10-03T09:00:04;102123.50;;;20.06;50.54
17649;BME280;8943;51.110;-4.158;2022-10-03T09:09:29;102120.81;;;20.35;50.22
17649;BME280;8943;51.110;-4.158;2022-10-03T09:12:32;102118.66;;;20.39;50.39
17649;BME280;8943;51.110;-4.158;2022-10-03T09:15:26;102125.13;;;20.47;50.22
17649;BME280;8943;51.110;-4.158;2022-10-03T09:18:36;102123.09;;;20.59;50.16
17649;BME280;8943;51.110;-4.158;2022-10-03T09:27:42;102111.50;;;20.96;50.07
17649;BME280;8943;51.110;-4.158;2022-10-03T09:30:22;102104.88;;;21.08;50.07
17649;BME280;8943;51.110;-4.158;2022-10-03T09:43:20;102093.97;;;21.65;49.99
17649;BME280;8943;51.110;-4.158;2022-10-03T09:52:08;102101.19;;;22.19;49.42
17649;BME280;8943;51.110;-4.158;2022-10-03T09:57:59;102096.06;;;22.52;48.80
17649;BME280;8943;51.110;-4.158;2022-10-03T10:00:56;102102.63;;;22.67;49.15
17649;BME280;8943;51.110;-4.158;2022-10-03T10:04:07;102098.16;;;22.84;48.67
17649;BME280;8943;51.110;-4.158;2022-10-03T10:10:19;102089.53;;;23.15;48.30
17649;BME280;8943;51.110;-4.158;2022-10-03T10:16:36;102096.97;;;23.47;47.90
17649;BME280;8943;51.110;-4.158;2022-10-03T10:19:48;102080.38;;;23.58;47.82
17649;BME280;8943;51.110;-4.158;2022-10-03T10:29:03;102061.28;;;23.92;47.23
17649;BME280;8943;51.110;-4.158;2022-10-03T10:35:20;102055.00;;;24.08;46.77
17649;BME280;8943;51.110;-4.158;2022-10-03T10:38:22;102055.66;;;24.18;46.91
17649;BME280;8943;51.110;-4.158;2022-10-03T10:41:37;102053.28;;;24.23;46.58
17649;BME280;8943;51.110;-4.158;2022-10-03T10:51:23;102048.19;;;24.53;46.33
17649;BME280;8943;51.110;-4.158;2022-10-03T10:54:40;102047.16;;;24.62;46.14
17649;BME280;8943;51.110;-4.158;2022-10-03T10:57:20;102046.97;;;24.72;46.20
17649;BME280;8943;51.110;-4.158;2022-10-03T11:00:26;102045.75;;;24.82;46.07
17649;BME280;8943;51.110;-4.158;2022-10-03T11:06:55;102042.66;;;24.93;45.77
17649;BME280;8943;51.110;-4.158;2022-10-03T11:09:40;102033.41;;;25.03;45.68
17649;BME280;8943;51.110;-4.158;2022-10-03T11:12:41;102030.69;;;25.11;45.22
17649;BME280;8943;51.110;-4.158;2022-10-03T11:15:55;102025.56;;;25.16;44.97
17649;BME280;8943;51.110;-4.158;2022-10-03T11:25:05;102014.94;;;25.29;44.96
17649;BME280;8943;51.110;-4.158;2022-10-03T11:34:34;102008.09;;;25.64;44.42
17649;BME280;8943;51.110;-4.158;2022-10-03T11:37:25;102016.88;;;25.75;43.99
17649;BME280;8943;51.110;-4.158;2022-10-03T11:45:45;101994.03;;;25.99;43.62
17649;BME280;8943;51.110;-4.158;2022-10-03T11:48:36;101997.72;;;26.06;43.66
17649;BME280;8943;51.110;-4.158;2022-10-03T11:51:09;101991.53;;;26.12;43.51
17649;BME280;8943;51.110;-4.158;2022-10-03T11:53:44;101996.34;;;26.25;43.51
17649;BME280;8943;51.110;-4.158;2022-10-03T11:56:29;101979.41;;;26.29;43.15
17649;BME280;8943;51.110;-4.158;2022-10-03T11:59:26;101986.88;;;26.35;43.10
17649;BME280;8943;51.110;-4.158;2022-10-03T12:02:06;101982.72;;;26.39;42.68
17649;BME280;8943;51.110;-4.158;2022-10-03T12:04:46;101983.75;;;26.38;42.48
17649;BME280;8943;51.110;-4.158;2022-10-03T12:07:31;101980.00;;;26.39;42.60
17649;BME280;8943;51.110;-4.158;2022-10-03T12:10:33;101974.19;;;26.42;42.62
17649;BME280;8943;51.110;-4.158;2022-10-03T12:13:09;101973.16;;;26.43;42.70
17649;BME280;8943;51.110;-4.158;2022-10-03T12:15:45;101964.03;;;26.51;42.38
17649;BME280;8943;51.110;-4.158;2022-10-03T12:18:20;101954.88;;;26.59;42.15
17649;BME280;8943;51.110;-4.158;2022-10-03T12:21:04;101949.41;;;26.59;41.91
17649;BME280;8943;51.110;-4.158;2022-10-03T12:23:55;101945.66;;;26.60;41.89
17649;BME280;8943;51.110;-4.158;2022-10-03T12:26:40;101937.34;;;26.68;41.67
17649;BME280;8943;51.110;-4.158;2022-10-03T12:29:13;101939.50;;;26.73;41.54
17649;BME280;8943;51.110;-4.158;2022-10-03T12:31:53;101934.88;;;26.73;41.51
17649;BME280;8943;51.110;-4.158;2022-10-03T12:34:36;101936.13;;;26.70;40.92
17649;BME280;8943;51.110;-4.158;2022-10-03T12:40:03;101935.66;;;26.67;40.88
17649;BME280;8943;51.110;-4.158;2022-10-03T12:42:41;101934.59;;;26.68;40.53
17649;BME280;8943;51.110;-4.158;2022-10-03T12:45:19;101938.00;;;26.70;40.62
17649;BME280;8943;51.110;-4.158;2022-10-03T12:47:59;101932.63;;;26.77;40.67
17649;BME280;8943;51.110;-4.158;2022-10-03T12:50:38;101925.34;;;26.84;40.63
17649;BME280;8943;51.110;-4.158;2022-10-03T12:53:29;101914.09;;;26.93;40.75
17649;BME280;8943;51.110;-4.158;2022-10-03T12:56:04;101909.84;;;27.06;40.51
17649;BME280;8943;51.110;-4.158;2022-10-03T12:58:42;101915.59;;;27.11;40.09
17649;BME280;8943;51.110;-4.158;2022-10-03T13:01:20;101906.75;;;27.09;39.83
17649;BME280;8943;51.110;-4.158;2022-10-03T13:03:56;101903.31;;;27.07;39.73
17649;BME280;8943;51.110;-4.158;2022-10-03T15:37:41;101767.97;;;30.29;30.39
17649;BME280;8943;51.110;-4.158;2022-10-03T15:40:34;101769.72;;;29.96;30.97
17649;BME280;8943;51.110;-4.158;2022-10-03T15:43:35;101776.59;;;29.67;31.24
17649;BME280;8943;51.110;-4.158;2022-10-03T15:46:28;101781.22;;;29.40;31.77
17649;BME280;8943;51.110;-4.158;2022-10-03T15:51:57;101771.06;;;28.94;32.44
17649;BME280;8943;51.110;-4.158;2022-10-03T15:57:24;101764.19;;;28.57;32.89
17649;BME280;8943;51.110;-4.158;2022-10-03T15:59:57;101757.41;;;28.46;33.35
17649;BME280;8943;51.110;-4.158;2022-10-03T16:02:32;101747.44;;;28.39;33.31
17649;BME280;8943;51.110;-4.158;2022-10-03T16:05:05;101745.50;;;28.33;33.50
17649;BME280;8943;51.110;-4.158;2022-10-03T16:07:55;101741.63;;;28.14;34.01
17649;BME280;8943;51.110;-4.158;2022-10-03T16:10:32;101733.00;;;28.17;34.02
17649;BME280;8943;51.110;-4.158;2022-10-03T16:13:29;101724.56;;;28.12;34.13
17649;BME280;8943;51.110;-4.158;2022-10-03T16:16:11;101721.59;;;28.07;34.41
17649;BME280;8943;51.110;-4.158;2022-10-03T16:18:53;101718.41;;;28.03;34.39
17649;BME280;8943;51.110;-4.158;2022-10-03T16:21:42;101718.81;;;28.00;34.42
17649;BME280;8943;51.110;-4.158;2022-10-03T16:24:20;101725.78;;;28.03;34.31
17649;BME280;8943;51.110;-4.158;2022-10-03T16:26:55;101717.63;;;28.16;34.49
17649;BME280;8943;51.110;-4.158;2022-10-03T16:29:31;101728.03;;;28.34;34.40
17649;BME280;8943;51.110;-4.158;2022-10-03T16:32:04;101729.47;;;28.30;34.64
17649;BME280;8943;51.110;-4.158;2022-10-03T16:34:35;101732.34;;;28.15;34.46
17649;BME280;8943;51.110;-4.158;2022-10-03T16:37:16;101736.03;;;27.87;34.57
17649;BME280;8943;51.110;-4.158;2022-10-03T16:39:56;101732.47;;;27.59;35.08
17649;BME280;8943;51.110;-4.158;2022-10-03T16:42:35;101734.72;;;27.27;35.07
17649;BME280;8943;51.110;-4.158;2022-10-03T16:45:19;101735.53;;;26.78;35.73
17649;BME280;8943;51.110;-4.158;2022-10-03T19:50:41;101684.97;;;21.06;52.70
17649;BME280;8943;51.110;-4.158;2022-10-03T19:53:14;101669.72;;;21.05;52.86
17649;BME280;8943;51.110;-4.158;2022-10-03T19:55:45;101670.56;;;21.06;52.55
